sensor_id;sensor_type;location;lat;lon;timestamp;temperature;humidity
78479;SHT31;67769;51.972;5.668;2023-05-10T00:01:46;17.6;68.6
78479;SHT31;67769;51.972;5.668;2023-05-10T00:04:16;17.6;68.8
78479;SHT31;67769;51.972;5.668;2023-05-10T00:06:45;17.6;68.9
78479;SHT31;67769;51.972;5.668;2023-05-10T00:09:17;17.6;68.9
78479;SHT31;67769;51.972;5.668;2023-05-10T00:11:46;17.6;69.1
78479;SHT31;67769;51.972;5.668;2023-05-10T00:14:16;17.7;68.8
78479;SHT31;67769;51.972;5.668;2023-05-10T00:16:48;17.7;69.0
78479;SHT31;67769;51.972;5.668;2023-05-10T00:19:18;17.6;68.9
78479;SHT31;67769;51.972;5.668;2023-05-10T00:21:47;17.6;69.0
78479;SHT31;67769;51.972;5.668;2023-05-10T00:24:16;17.6;69.0
78479;SHT31;67769;51.972;5.668;2023-05-10T00:26:48;17.6;69.0
78479;SHT31;67769;51.972;5.668;2023-05-10T00:29:17;17.6;69.0
78479;SHT31;67769;51.972;5.668;2023-05-10T00:31:47;17.6;68.9
78479;SHT31;67769;51.972;5.668;2023-05-10T00:34:16;17.6;69.1
78479;SHT31;67769;51.972;5.668;2023-05-10T00:36:46;17.6;69.0
78479;SHT31;67769;51.972;5.668;2023-05-10T00:39:15;17.6;69.0
78479;SHT31;67769;51.972;5.668;2023-05-10T00:41:45;17.6;69.1
78479;SHT31;67769;51.972;5.668;2023-05-10T00:44:15;17.6;69.1
78479;SHT31;67769;51.972;5.668;2023-05-10T00:46:46;17.6;69.1
78479;SHT31;67769;51.972;5.668;2023-05-10T00:49:17;17.6;69.2
78479;SHT31;67769;51.972;5.668;2023-05-10T00:51:47;17.6;69.2
78479;SHT31;67769;51.972;5.668;2023-05-10T00:54:17;17.6;69.5
78479;SHT31;67769;51.972;5.668;2023-05-10T00:56:47;17.6;69.7
78479;SHT31;67769;51.972;5.668;2023-05-10T00:59:18;17.6;69.5
78479;SHT31;67769;51.972;5.668;2023-05-10T01:01:48;17.6;69.8
78479;SHT31;67769;51.972;5.668;2023-05-10T01:04:19;17.6;70.0
78479;SHT31;67769;51.972;5.668;2023-05-10T01:06:53;17.5;70.0
78479;SHT31;67769;51.972;5.668;2023-05-10T01:09:23;17.5;70.2
78479;SHT31;67769;51.972;5.668;2023-05-10T01:11:54;17.5;70.4
78479;SHT31;67769;51.972;5.668;2023-05-10T01:14:25;17.5;70.4
78479;SHT31;67769;51.972;5.668;2023-05-10T01:16:57;17.5;70.5
78479;SHT31;67769;51.972;5.668;2023-05-10T01:19:29;17.5;70.6
78479;SHT31;67769;51.972;5.668;2023-05-10T01:22:09;17.5;70.6
78479;SHT31;67769;51.972;5.668;2023-05-10T01:24:55;17.5;70.7
78479;SHT31;67769;51.972;5.668;2023-05-10T01:28:02;17.5;70.5
78479;SHT31;67769;51.972;5.668;2023-05-10T01:32:08;17.5;70.8
78479;SHT31;67769;51.972;5.668;2023-05-10T01:34:50;17.5;70.6
78479;SHT31;67769;51.972;5.668;2023-05-10T01:37:31;17.5;70.9
78479;SHT31;67769;51.972;5.668;2023-05-10T01:40:09;17.5;70.5
78479;SHT31;67769;51.972;5.668;2023-05-10T01:42:47;17.5;70.9
78479;SHT31;67769;51.972;5.668;2023-05-10T01:45:27;17.5;70.6
78479;SHT31;67769;51.972;5.668;2023-05-10T01:48:05;17.4;70.5
78479;SHT31;67769;51.972;5.668;2023-05-10T01:50:37;17.4;70.4
78479;SHT31;67769;51.972;5.668;2023-05-10T01:53:10;17.4;70.8
78479;SHT31;67769;51.972;5.668;2023-05-10T01:55:46;17.4;70.6
78479;SHT31;67769;51.972;5.668;2023-05-10T01:58:20;17.4;70.6
78479;SHT31;67769;51.972;5.668;2023-05-10T02:00:52;17.4;70.4
78479;SHT31;67769;51.972;5.668;2023-05-10T02:03:25;17.4;70.5
78479;SHT31;67769;51.972;5.668;2023-05-10T02:05:57;17.4;70.4
78479;SHT31;67769;51.972;5.668;2023-05-10T02:08:28;17.4;70.3
78479;SHT31;67769;51.972;5.668;2023-05-10T02:10:59;17.4;70.4
78479;SHT31;67769;51.972;5.668;2023-05-10T02:13:33;17.4;70.3
78479;SHT31;67769;51.972;5.668;2023-05-10T02:16:05;17.4;70.2
78479;SHT31;67769;51.972;5.668;2023-05-10T02:18:36;17.4;70.7
78479;SHT31;67769;51.972;5.668;2023-05-10T02:21:08;17.4;70.6
78479;SHT31;67769;51.972;5.668;2023-05-10T02:23:39;17.4;70.7
78479;SHT31;67769;51.972;5.668;2023-05-10T02:26:09;17.4;70.6
78479;SHT31;67769;51.972;5.668;2023-05-10T02:28:42;17.4;70.8
78479;SHT31;67769;51.972;5.668;2023-05-10T02:31:14;17.4;70.6
78479;SHT31;67769;51.972;5.668;2023-05-10T02:33:47;17.4;70.3
78479;SHT31;67769;51.972;5.668;2023-05-10T02:36:19;17.4;70.3
78479;SHT31;67769;51.972;5.668;2023-05-10T02:38:51;17.4;69.7
78479;SHT31;67769;51.972;5.668;2023-05-10T02:41:23;17.4;69.5
78479;SHT31;67769;51.972;5.668;2023-05-10T02:43:57;17.4;69.7
78479;SHT31;67769;51.972;5.668;2023-05-10T02:46:30;17.4;70.1
78479;SHT31;67769;51.972;5.668;2023-05-10T02:49:00;17.3;69.5
78479;SHT31;67769;51.972;5.668;2023-05-10T02:51:32;17.3;69.3
78479;SHT31;67769;51.972;5.668;2023-05-10T02:54:09;17.3;69.7
78479;SHT31;67769;51.972;5.668;2023-05-10T02:56:43;17.3;69.6
78479;SHT31;67769;51.972;5.668;2023-05-10T02:59:16;17.3;69.2
78479;SHT31;67769;51.972;5.668;2023-05-10T03:01:45;17.3;69.5
78479;SHT31;67769;51.972;5.668;2023-05-10T03:04:15;17.3;69.0
78479;SHT31;67769;51.972;5.668;2023-05-10T03:06:45;17.3;69.0
78479;SHT31;67769;51.972;5.668;2023-05-10T03:09:17;17.3;68.8
78479;SHT31;67769;51.972;5.668;2023-05-10T03:12:00;17.3;68.9
78479;SHT31;67769;51.972;5.668;2023-05-10T03:14:45;17.3;68.5
78479;SHT31;67769;51.972;5.668;2023-05-10T03:17:23;17.2;69.0
78479;SHT31;67769;51.972;5.668;2023-05-10T03:19:56;17.2;69.3
78479;SHT31;67769;51.972;5.668;2023-05-10T03:22:32;17.2;69.5
78479;SHT31;67769;51.972;5.668;2023-05-10T03:25:05;17.2;69.4
78479;SHT31;67769;51.972;5.668;2023-05-10T03:27:36;17.2;69.3
78479;SHT31;67769;51.972;5.668;2023-05-10T03:30:10;17.2;69.3
78479;SHT31;67769;51.972;5.668;2023-05-10T03:32:41;17.2;69.3
78479;SHT31;67769;51.972;5.668;2023-05-10T03:35:12;17.2;68.5
78479;SHT31;67769;51.972;5.668;2023-05-10T03:37:44;17.2;69.0
78479;SHT31;67769;51.972;5.668;2023-05-10T03:40:14;17.2;68.9
78479;SHT31;67769;51.972;5.668;2023-05-10T03:42:44;17.2;69.0
78479;SHT31;67769;51.972;5.668;2023-05-10T03:45:13;17.2;68.6
78479;SHT31;67769;51.972;5.668;2023-05-10T03:47:43;17.2;69.0
78479;SHT31;67769;51.972;5.668;2023-05-10T03:50:12;17.2;68.7
78479;SHT31;67769;51.972;5.668;2023-05-10T03:52:42;17.1;68.7
78479;SHT31;67769;51.972;5.668;2023-05-10T03:55:11;17.1;69.8
78479;SHT31;67769;51.972;5.668;2023-05-10T03:57:41;17.1;69.4
78479;SHT31;67769;51.972;5.668;2023-05-10T04:00:12;17.1;70.4
78479;SHT31;67769;51.972;5.668;2023-05-10T04:02:41;17.1;70.3
78479;SHT31;67769;51.972;5.668;2023-05-10T04:05:11;17.1;69.8
78479;SHT31;67769;51.972;5.668;2023-05-10T04:07:42;17.1;69.4
78479;SHT31;67769;51.972;5.668;2023-05-10T04:10:12;17.0;69.3
78479;SHT31;67769;51.972;5.668;2023-05-10T04:12:41;17.0;69.1
78479;SHT31;67769;51.972;5.668;2023-05-10T04:15:11;17.0;69.1
78479;SHT31;67769;51.972;5.668;2023-05-10T04:17:41;17.0;69.2
78479;SHT31;67769;51.972;5.668;2023-05-10T04:20:11;17.0;69.5
78479;SHT31;67769;51.972;5.668;2023-05-10T04:22:41;17.0;69.9
78479;SHT31;67769;51.972;5.668;2023-05-10T04:25:11;17.0;70.5
78479;SHT31;67769;51.972;5.668;2023-05-10T04:27:40;16.9;69.8
78479;SHT31;67769;51.972;5.668;2023-05-10T04:30:13;17.0;69.8
78479;SHT31;67769;51.972;5.668;2023-05-10T04:32:42;17.0;70.2
78479;SHT31;67769;51.972;5.668;2023-05-10T04:35:12;17.0;70.0
78479;SHT31;67769;51.972;5.668;2023-05-10T04:37:42;17.0;69.9
78479;SHT31;67769;51.972;5.668;2023-05-10T04:40:12;17.0;70.0
78479;SHT31;67769;51.972;5.668;2023-05-10T04:42:43;17.0;69.6
78479;SHT31;67769;51.972;5.668;2023-05-10T04:45:13;17.0;69.7
78479;SHT31;67769;51.972;5.668;2023-05-10T04:47:43;17.0;69.6
78479;SHT31;67769;51.972;5.668;2023-05-10T04:50:13;17.0;69.6
78479;SHT31;67769;51.972;5.668;2023-05-10T04:52:42;17.1;69.4
78479;SHT31;67769;51.972;5.668;2023-05-10T04:55:13;17.1;69.6
78479;SHT31;67769;51.972;5.668;2023-05-10T04:57:42;17.1;69.4
78479;SHT31;67769;51.972;5.668;2023-05-10T05:00:13;17.1;69.4
78479;SHT31;67769;51.972;5.668;2023-05-10T05:02:45;17.1;69.8
78479;SHT31;67769;51.972;5.668;2023-05-10T05:05:14;17.1;69.3
78479;SHT31;67769;51.972;5.668;2023-05-10T05:07:44;17.2;69.3
78479;SHT31;67769;51.972;5.668;2023-05-10T05:10:14;17.2;69.3
78479;SHT31;67769;51.972;5.668;2023-05-10T05:12:44;17.2;69.4
78479;SHT31;67769;51.972;5.668;2023-05-10T05:15:16;17.2;69.6
78479;SHT31;67769;51.972;5.668;2023-05-10T05:17:45;17.2;69.4
78479;SHT31;67769;51.972;5.668;2023-05-10T05:20:15;17.3;69.1
78479;SHT31;67769;51.972;5.668;2023-05-10T05:22:46;17.3;68.6
78479;SHT31;67769;51.972;5.668;2023-05-10T05:25:15;17.3;68.8
78479;SHT31;67769;51.972;5.668;2023-05-10T05:27:45;17.3;68.6
78479;SHT31;67769;51.972;5.668;2023-05-10T05:30:14;17.3;69.0
78479;SHT31;67769;51.972;5.668;2023-05-10T05:32:44;17.3;68.8
78479;SHT31;67769;51.972;5.668;2023-05-10T05:35:14;17.3;69.2
78479;SHT31;67769;51.972;5.668;2023-05-10T05:37:44;17.3;69.1
78479;SHT31;67769;51.972;5.668;2023-05-10T05:40:14;17.3;69.0
78479;SHT31;67769;51.972;5.668;2023-05-10T05:42:44;17.3;69.7
78479;SHT31;67769;51.972;5.668;2023-05-10T05:45:13;17.3;70.0
78479;SHT31;67769;51.972;5.668;2023-05-10T05:47:43;17.3;69.1
78479;SHT31;67769;51.972;5.668;2023-05-10T05:50:15;17.3;69.4
78479;SHT31;67769;51.972;5.668;2023-05-10T05:52:44;17.3;69.7
78479;SHT31;67769;51.972;5.668;2023-05-10T05:55:14;17.3;70.1
78479;SHT31;67769;51.972;5.668;2023-05-10T05:57:44;17.3;70.2
78479;SHT31;67769;51.972;5.668;2023-05-10T06:00:14;17.3;70.1
78479;SHT31;67769;51.972;5.668;2023-05-10T06:02:44;17.4;69.4
78479;SHT31;67769;51.972;5.668;2023-05-10T06:05:15;17.4;69.7
78479;SHT31;67769;51.972;5.668;2023-05-10T06:07:44;17.4;69.6
78479;SHT31;67769;51.972;5.668;2023-05-10T06:10:14;17.4;70.2
78479;SHT31;67769;51.972;5.668;2023-05-10T06:12:43;17.4;69.7
78479;SHT31;67769;51.972;5.668;2023-05-10T06:15:13;17.4;70.7
78479;SHT31;67769;51.972;5.668;2023-05-10T06:17:43;17.4;69.7
78479;SHT31;67769;51.972;5.668;2023-05-10T06:20:17;17.4;70.1
78479;SHT31;67769;51.972;5.668;2023-05-10T06:22:47;17.4;69.4
78479;SHT31;67769;51.972;5.668;2023-05-10T06:25:17;17.4;70.6
78479;SHT31;67769;51.972;5.668;2023-05-10T06:27:49;17.4;69.7
78479;SHT31;67769;51.972;5.668;2023-05-10T06:30:22;17.4;69.6
78479;SHT31;67769;51.972;5.668;2023-05-10T06:32:55;17.5;69.8
78479;SHT31;67769;51.972;5.668;2023-05-10T06:35:24;17.5;69.7
78479;SHT31;67769;51.972;5.668;2023-05-10T06:37:54;17.5;69.4
78479;SHT31;67769;51.972;5.668;2023-05-10T06:40:23;17.5;69.0
78479;SHT31;67769;51.972;5.668;2023-05-10T06:42:53;17.5;69.1
78479;SHT31;67769;51.972;5.668;2023-05-10T06:45:23;17.5;69.6
78479;SHT31;67769;51.972;5.668;2023-05-10T06:47:52;17.5;70.0
78479;SHT31;67769;51.972;5.668;2023-05-10T06:50:22;17.5;70.0
78479;SHT31;67769;51.972;5.668;2023-05-10T06:52:52;17.5;70.0
78479;SHT31;67769;51.972;5.668;2023-05-10T06:55:24;17.5;70.1
78479;SHT31;67769;51.972;5.668;2023-05-10T06:57:54;17.5;69.4
78479;SHT31;67769;51.972;5.668;2023-05-10T07:00:26;17.5;69.6
78479;SHT31;67769;51.972;5.668;2023-05-10T07:02:55;17.6;69.2
78479;SHT31;67769;51.972;5.668;2023-05-10T07:05:25;17.6;69.2
78479;SHT31;67769;51.972;5.668;2023-05-10T07:07:58;17.6;69.0
78479;SHT31;67769;51.972;5.668;2023-05-10T07:10:28;17.6;68.6
78479;SHT31;67769;51.972;5.668;2023-05-10T07:12:57;17.6;69.0
78479;SHT31;67769;51.972;5.668;2023-05-10T07:15:30;17.6;69.5
78479;SHT31;67769;51.972;5.668;2023-05-10T07:18:00;17.6;69.3
78479;SHT31;67769;51.972;5.668;2023-05-10T07:20:31;17.6;69.0
78479;SHT31;67769;51.972;5.668;2023-05-10T07:23:01;17.6;69.4
78479;SHT31;67769;51.972;5.668;2023-05-10T07:25:30;17.6;69.5
78479;SHT31;67769;51.972;5.668;2023-05-10T07:28:00;17.6;69.9
78479;SHT31;67769;51.972;5.668;2023-05-10T07:30:29;17.6;69.3
78479;SHT31;67769;51.972;5.668;2023-05-10T07:32:59;17.7;69.5
78479;SHT31;67769;51.972;5.668;2023-05-10T07:35:29;17.7;68.9
78479;SHT31;67769;51.972;5.668;2023-05-10T07:37:58;17.7;68.9
78479;SHT31;67769;51.972;5.668;2023-05-10T07:40:28;17.8;68.9
78479;SHT31;67769;51.972;5.668;2023-05-10T07:42:59;17.8;69.2
78479;SHT31;67769;51.972;5.668;2023-05-10T07:45:29;17.8;69.2
78479;SHT31;67769;51.972;5.668;2023-05-10T07:47:59;17.9;69.1
78479;SHT31;67769;51.972;5.668;2023-05-10T07:50:29;18.0;68.7
78479;SHT31;67769;51.972;5.668;2023-05-10T07:52:59;18.0;68.3
78479;SHT31;67769;51.972;5.668;2023-05-10T07:55:30;18.1;67.3
78479;SHT31;67769;51.972;5.668;2023-05-10T07:58:00;18.2;67.2
78479;SHT31;67769;51.972;5.668;2023-05-10T08:00:30;18.2;66.6
78479;SHT31;67769;51.972;5.668;2023-05-10T08:03:00;18.3;66.6
78479;SHT31;67769;51.972;5.668;2023-05-10T08:05:29;18.3;65.8
78479;SHT31;67769;51.972;5.668;2023-05-10T08:07:59;18.4;64.8
78479;SHT31;67769;51.972;5.668;2023-05-10T08:10:29;18.4;65.2
78479;SHT31;67769;51.972;5.668;2023-05-10T08:12:58;18.4;65.7
78479;SHT31;67769;51.972;5.668;2023-05-10T08:15:28;18.4;65.1
78479;SHT31;67769;51.972;5.668;2023-05-10T08:17:57;18.4;64.9
78479;SHT31;67769;51.972;5.668;2023-05-10T08:20:27;18.5;64.6
78479;SHT31;67769;51.972;5.668;2023-05-10T08:22:57;18.5;64.0
78479;SHT31;67769;51.972;5.668;2023-05-10T08:25:26;18.5;64.0
78479;SHT31;67769;51.972;5.668;2023-05-10T08:27:56;18.5;63.2
78479;SHT31;67769;51.972;5.668;2023-05-10T08:30:26;18.6;64.0
78479;SHT31;67769;51.972;5.668;2023-05-10T08:32:55;18.6;63.2
78479;SHT31;67769;51.972;5.668;2023-05-10T08:35:25;18.6;63.6
78479;SHT31;67769;51.972;5.668;2023-05-10T08:37:55;18.7;64.1
78479;SHT31;67769;51.972;5.668;2023-05-10T08:40:28;18.8;63.9
78479;SHT31;67769;51.972;5.668;2023-05-10T08:43:00;18.8;62.6
78479;SHT31;67769;51.972;5.668;2023-05-10T08:45:37;18.9;62.2
78479;SHT31;67769;51.972;5.668;2023-05-10T08:48:09;19.0;63.3
78479;SHT31;67769;51.972;5.668;2023-05-10T08:50:40;19.1;62.8
78479;SHT31;67769;51.972;5.668;2023-05-10T08:53:12;19.2;63.5
78479;SHT31;67769;51.972;5.668;2023-05-10T08:55:44;19.3;62.6
78479;SHT31;67769;51.972;5.668;2023-05-10T08:58:16;19.5;60.9
78479;SHT31;67769;51.972;5.668;2023-05-10T09:00:48;19.6;60.1
78479;SHT31;67769;51.972;5.668;2023-05-10T09:03:18;19.7;59.2
78479;SHT31;67769;51.972;5.668;2023-05-10T09:05:48;19.8;59.2
78479;SHT31;67769;51.972;5.668;2023-05-10T09:08:18;19.9;58.3
78479;SHT31;67769;51.972;5.668;2023-05-10T09:10:49;20.0;58.3
78479;SHT31;67769;51.972;5.668;2023-05-10T09:13:21;20.0;58.6
78479;SHT31;67769;51.972;5.668;2023-05-10T09:15:52;20.1;57.5
78479;SHT31;67769;51.972;5.668;2023-05-10T09:18:22;20.2;57.4
78479;SHT31;67769;51.972;5.668;2023-05-10T09:20:52;20.2;57.8
78479;SHT31;67769;51.972;5.668;2023-05-10T09:23:21;20.3;56.4
78479;SHT31;67769;51.972;5.668;2023-05-10T09:26:04;20.3;55.9
78479;SHT31;67769;51.972;5.668;2023-05-10T09:28:51;20.3;56.6
78479;SHT31;67769;51.972;5.668;2023-05-10T09:31:22;20.3;56.7
78479;SHT31;67769;51.972;5.668;2023-05-10T09:33:53;20.3;56.8
78479;SHT31;67769;51.972;5.668;2023-05-10T09:36:23;20.3;55.6
78479;SHT31;67769;51.972;5.668;2023-05-10T09:38:54;20.4;57.2
78479;SHT31;67769;51.972;5.668;2023-05-10T09:41:25;20.4;57.1
78479;SHT31;67769;51.972;5.668;2023-05-10T09:43:56;20.4;57.1
78479;SHT31;67769;51.972;5.668;2023-05-10T09:46:26;20.4;56.2
78479;SHT31;67769;51.972;5.668;2023-05-10T09:48:57;20.4;56.7
78479;SHT31;67769;51.972;5.668;2023-05-10T09:51:27;20.4;56.8
78479;SHT31;67769;51.972;5.668;2023-05-10T09:54:11;20.4;56.4
78479;SHT31;67769;51.972;5.668;2023-05-10T09:56:41;20.4;56.7
78479;SHT31;67769;51.972;5.668;2023-05-10T09:59:12;20.4;55.6
78479;SHT31;67769;51.972;5.668;2023-05-10T10:01:42;20.5;56.6
78479;SHT31;67769;51.972;5.668;2023-05-10T10:04:17;20.5;56.5
78479;SHT31;67769;51.972;5.668;2023-05-10T10:07:00;20.5;56.2
78479;SHT31;67769;51.972;5.668;2023-05-10T10:09:31;20.6;56.4
78479;SHT31;67769;51.972;5.668;2023-05-10T10:12:01;20.7;55.4
78479;SHT31;67769;51.972;5.668;2023-05-10T10:14:32;20.7;56.0
78479;SHT31;67769;51.972;5.668;2023-05-10T10:17:05;20.7;55.8
78479;SHT31;67769;51.972;5.668;2023-05-10T10:19:35;20.8;55.0
78479;SHT31;67769;51.972;5.668;2023-05-10T10:22:05;20.8;55.6
78479;SHT31;67769;51.972;5.668;2023-05-10T10:24:35;20.8;55.3
78479;SHT31;67769;51.972;5.668;2023-05-10T10:27:11;20.8;55.1
78479;SHT31;67769;51.972;5.668;2023-05-10T10:29:52;20.9;54.9
78479;SHT31;67769;51.972;5.668;2023-05-10T10:32:33;20.9;55.5
78479;SHT31;67769;51.972;5.668;2023-05-10T10:35:06;20.9;54.9
78479;SHT31;67769;51.972;5.668;2023-05-10T10:37:46;20.9;55.0
78479;SHT31;67769;51.972;5.668;2023-05-10T10:40:27;20.9;54.5
78479;SHT31;67769;51.972;5.668;2023-05-10T10:42:57;21.0;55.5
78479;SHT31;67769;51.972;5.668;2023-05-10T10:45:27;21.0;55.6
78479;SHT31;67769;51.972;5.668;2023-05-10T10:48:49;21.0;55.9
78479;SHT31;67769;51.972;5.668;2023-05-10T10:51:22;21.1;54.7
78479;SHT31;67769;51.972;5.668;2023-05-10T10:53:52;21.1;55.0
78479;SHT31;67769;51.972;5.668;2023-05-10T10:56:23;21.1;55.0
78479;SHT31;67769;51.972;5.668;2023-05-10T10:58:56;21.1;53.9
78479;SHT31;67769;51.972;5.668;2023-05-10T11:01:33;21.1;54.5
78479;SHT31;67769;51.972;5.668;2023-05-10T11:04:18;21.1;54.4
78479;SHT31;67769;51.972;5.668;2023-05-10T11:06:49;21.1;54.3
78479;SHT31;67769;51.972;5.668;2023-05-10T11:09:19;21.1;55.2
78479;SHT31;67769;51.972;5.668;2023-05-10T11:11:54;21.1;54.0
78479;SHT31;67769;51.972;5.668;2023-05-10T11:14:25;21.1;54.8
78479;SHT31;67769;51.972;5.668;2023-05-10T11:16:55;21.0;54.5
78479;SHT31;67769;51.972;5.668;2023-05-10T11:19:27;21.0;55.2
78479;SHT31;67769;51.972;5.668;2023-05-10T11:22:13;21.0;55.6
78479;SHT31;67769;51.972;5.668;2023-05-10T11:24:56;21.0;54.7
78479;SHT31;67769;51.972;5.668;2023-05-10T11:27:26;21.0;54.2
78479;SHT31;67769;51.972;5.668;2023-05-10T11:29:58;21.0;54.4
78479;SHT31;67769;51.972;5.668;2023-05-10T11:32:28;21.0;54.7
78479;SHT31;67769;51.972;5.668;2023-05-10T11:34:58;21.0;54.9
78479;SHT31;67769;51.972;5.668;2023-05-10T11:37:32;21.0;54.0
78479;SHT31;67769;51.972;5.668;2023-05-10T11:40:01;21.0;55.1
78479;SHT31;67769;51.972;5.668;2023-05-10T11:42:31;21.0;55.3
78479;SHT31;67769;51.972;5.668;2023-05-10T11:45:02;21.0;55.2
78479;SHT31;67769;51.972;5.668;2023-05-10T11:47:32;21.0;55.8
78479;SHT31;67769;51.972;5.668;2023-05-10T11:50:03;21.0;55.3
78479;SHT31;67769;51.972;5.668;2023-05-10T11:52:37;21.1;53.7
78479;SHT31;67769;51.972;5.668;2023-05-10T11:55:07;21.1;55.4
78479;SHT31;67769;51.972;5.668;2023-05-10T11:57:37;21.2;55.1
78479;SHT31;67769;51.972;5.668;2023-05-10T12:00:12;21.3;54.6
78479;SHT31;67769;51.972;5.668;2023-05-10T12:02:42;21.4;53.8
78479;SHT31;67769;51.972;5.668;2023-05-10T12:05:13;21.4;54.4
78479;SHT31;67769;51.972;5.668;2023-05-10T12:07:43;21.5;54.7
78479;SHT31;67769;51.972;5.668;2023-05-10T12:10:14;21.6;54.5
78479;SHT31;67769;51.972;5.668;2023-05-10T12:12:46;21.6;54.5
78479;SHT31;67769;51.972;5.668;2023-05-10T12:15:20;21.7;53.8
78479;SHT31;67769;51.972;5.668;2023-05-10T12:17:51;21.8;53.7
78479;SHT31;67769;51.972;5.668;2023-05-10T12:20:22;21.8;52.5
78479;SHT31;67769;51.972;5.668;2023-05-10T12:22:54;21.9;52.8
78479;SHT31;67769;51.972;5.668;2023-05-10T12:25:33;22.0;52.5
78479;SHT31;67769;51.972;5.668;2023-05-10T12:28:06;22.1;53.1
78479;SHT31;67769;51.972;5.668;2023-05-10T12:30:37;22.2;51.8
78479;SHT31;67769;51.972;5.668;2023-05-10T12:33:11;22.3;51.7
78479;SHT31;67769;51.972;5.668;2023-05-10T12:35:47;22.3;52.4
78479;SHT31;67769;51.972;5.668;2023-05-10T12:38:27;22.4;50.2
78479;SHT31;67769;51.972;5.668;2023-05-10T12:41:01;22.5;50.5
78479;SHT31;67769;51.972;5.668;2023-05-10T12:43:32;22.5;51.3
78479;SHT31;67769;51.972;5.668;2023-05-10T12:46:07;22.6;52.3
78479;SHT31;67769;51.972;5.668;2023-05-10T12:48:38;22.6;51.4
78479;SHT31;67769;51.972;5.668;2023-05-10T12:51:08;22.6;51.2
78479;SHT31;67769;51.972;5.668;2023-05-10T12:53:40;22.6;51.6
78479;SHT31;67769;51.972;5.668;2023-05-10T12:56:10;22.7;50.3
78479;SHT31;67769;51.972;5.668;2023-05-10T12:58:41;22.7;50.4
78479;SHT31;67769;51.972;5.668;2023-05-10T13:01:15;22.7;49.8
78479;SHT31;67769;51.972;5.668;2023-05-10T13:03:44;22.7;49.7
78479;SHT31;67769;51.972;5.668;2023-05-10T13:06:15;22.7;50.9
78479;SHT31;67769;51.972;5.668;2023-05-10T13:08:46;22.6;50.9
78479;SHT31;67769;51.972;5.668;2023-05-10T13:11:16;22.5;51.2
78479;SHT31;67769;51.972;5.668;2023-05-10T13:13:47;22.4;50.9
78479;SHT31;67769;51.972;5.668;2023-05-10T13:16:16;22.3;51.2
78479;SHT31;67769;51.972;5.668;2023-05-10T13:18:46;22.1;51.1
78479;SHT31;67769;51.972;5.668;2023-05-10T13:21:16;22.0;52.1
78479;SHT31;67769;51.972;5.668;2023-05-10T13:23:45;21.8;52.5
78479;SHT31;67769;51.972;5.668;2023-05-10T13:26:17;21.7;53.5
78479;SHT31;67769;51.972;5.668;2023-05-10T13:28:47;21.6;53.2
78479;SHT31;67769;51.972;5.668;2023-05-10T13:31:18;21.5;54.0
78479;SHT31;67769;51.972;5.668;2023-05-10T13:33:48;21.4;54.7
78479;SHT31;67769;51.972;5.668;2023-05-10T13:36:17;21.3;55.5
78479;SHT31;67769;51.972;5.668;2023-05-10T13:38:47;21.1;56.6
78479;SHT31;67769;51.972;5.668;2023-05-10T13:41:17;21.1;57.3
78479;SHT31;67769;51.972;5.668;2023-05-10T13:43:48;21.0;57.6
78479;SHT31;67769;51.972;5.668;2023-05-10T13:46:18;20.9;57.7
78479;SHT31;67769;51.972;5.668;2023-05-10T13:48:47;20.9;58.2
78479;SHT31;67769;51.972;5.668;2023-05-10T13:51:17;20.9;58.7
78479;SHT31;67769;51.972;5.668;2023-05-10T13:53:46;20.8;59.3
78479;SHT31;67769;51.972;5.668;2023-05-10T13:56:16;20.8;59.3
78479;SHT31;67769;51.972;5.668;2023-05-10T13:58:45;20.8;59.2
78479;SHT31;67769;51.972;5.668;2023-05-10T14:01:15;20.7;58.3
78479;SHT31;67769;51.972;5.668;2023-05-10T14:03:45;20.7;58.1
78479;SHT31;67769;51.972;5.668;2023-05-10T14:06:15;20.6;58.3
78479;SHT31;67769;51.972;5.668;2023-05-10T14:08:45;20.6;58.7
78479;SHT31;67769;51.972;5.668;2023-05-10T14:11:15;20.5;58.6
78479;SHT31;67769;51.972;5.668;2023-05-10T14:13:45;20.5;59.0
78479;SHT31;67769;51.972;5.668;2023-05-10T14:16:14;20.4;59.5
78479;SHT31;67769;51.972;5.668;2023-05-10T14:18:44;20.4;59.7
78479;SHT31;67769;51.972;5.668;2023-05-10T14:21:14;20.3;60.6
78479;SHT31;67769;51.972;5.668;2023-05-10T14:23:45;20.3;60.4
78479;SHT31;67769;51.972;5.668;2023-05-10T14:26:15;20.2;60.5
78479;SHT31;67769;51.972;5.668;2023-05-10T14:28:46;20.2;60.6
78479;SHT31;67769;51.972;5.668;2023-05-10T14:31:16;20.2;61.0
78479;SHT31;67769;51.972;5.668;2023-05-10T14:33:47;20.1;61.2
78479;SHT31;67769;51.972;5.668;2023-05-10T14:36:17;20.1;61.2
78479;SHT31;67769;51.972;5.668;2023-05-10T14:38:49;20.1;60.8
78479;SHT31;67769;51.972;5.668;2023-05-10T14:41:21;20.1;61.1
78479;SHT31;67769;51.972;5.668;2023-05-10T14:43:50;20.1;61.2
78479;SHT31;67769;51.972;5.668;2023-05-10T14:46:20;20.1;63.0
78479;SHT31;67769;51.972;5.668;2023-05-10T14:48:49;20.2;62.7
78479;SHT31;67769;51.972;5.668;2023-05-10T14:51:19;20.2;61.4
78479;SHT31;67769;51.972;5.668;2023-05-10T14:53:49;20.2;60.5
78479;SHT31;67769;51.972;5.668;2023-05-10T14:56:19;20.3;61.1
78479;SHT31;67769;51.972;5.668;2023-05-10T14:58:49;20.3;61.9
78479;SHT31;67769;51.972;5.668;2023-05-10T15:01:19;20.4;61.8
78479;SHT31;67769;51.972;5.668;2023-05-10T15:03:49;20.4;61.0
78479;SHT31;67769;51.972;5.668;2023-05-10T15:06:23;20.5;59.8
78479;SHT31;67769;51.972;5.668;2023-05-10T15:08:52;20.5;59.7
78479;SHT31;67769;51.972;5.668;2023-05-10T15:11:22;20.5;60.3
78479;SHT31;67769;51.972;5.668;2023-05-10T15:13:52;20.5;61.7
78479;SHT31;67769;51.972;5.668;2023-05-10T15:16:22;20.5;60.1
78479;SHT31;67769;51.972;5.668;2023-05-10T15:18:52;20.6;59.5
78479;SHT31;67769;51.972;5.668;2023-05-10T15:21:21;20.6;59.4
78479;SHT31;67769;51.972;5.668;2023-05-10T15:23:51;20.6;60.7
78479;SHT31;67769;51.972;5.668;2023-05-10T15:26:21;20.6;60.0
78479;SHT31;67769;51.972;5.668;2023-05-10T15:28:53;20.6;60.8
78479;SHT31;67769;51.972;5.668;2023-05-10T15:31:23;20.6;58.6
78479;SHT31;67769;51.972;5.668;2023-05-10T15:33:57;20.7;59.5
78479;SHT31;67769;51.972;5.668;2023-05-10T15:36:27;20.7;59.7
78479;SHT31;67769;51.972;5.668;2023-05-10T15:38:57;20.7;59.7
78479;SHT31;67769;51.972;5.668;2023-05-10T15:41:26;20.8;58.8
78479;SHT31;67769;51.972;5.668;2023-05-10T15:43:57;20.8;59.3
78479;SHT31;67769;51.972;5.668;2023-05-10T15:46:28;20.9;59.4
78479;SHT31;67769;51.972;5.668;2023-05-10T15:48:58;20.9;59.7
78479;SHT31;67769;51.972;5.668;2023-05-10T15:51:29;21.0;58.9
78479;SHT31;67769;51.972;5.668;2023-05-10T15:54:00;21.0;58.3
78479;SHT31;67769;51.972;5.668;2023-05-10T15:56:33;21.0;58.4
78479;SHT31;67769;51.972;5.668;2023-05-10T15:59:04;21.0;57.3
78479;SHT31;67769;51.972;5.668;2023-05-10T16:01:35;21.0;57.7
78479;SHT31;67769;51.972;5.668;2023-05-10T16:04:05;21.0;58.0
78479;SHT31;67769;51.972;5.668;2023-05-10T16:06:35;21.0;57.9
78479;SHT31;67769;51.972;5.668;2023-05-10T16:09:05;21.0;58.0
78479;SHT31;67769;51.972;5.668;2023-05-10T16:11:37;20.9;57.9
78479;SHT31;67769;51.972;5.668;2023-05-10T16:14:06;20.9;58.0
78479;SHT31;67769;51.972;5.668;2023-05-10T16:16:36;20.9;58.0
78479;SHT31;67769;51.972;5.668;2023-05-10T16:19:05;20.9;57.8
78479;SHT31;67769;51.972;5.668;2023-05-10T16:21:37;20.8;58.5
78479;SHT31;67769;51.972;5.668;2023-05-10T16:24:08;20.8;57.8
78479;SHT31;67769;51.972;5.668;2023-05-10T16:26:40;20.7;58.5
78479;SHT31;67769;51.972;5.668;2023-05-10T16:29:10;20.7;59.0
78479;SHT31;67769;51.972;5.668;2023-05-10T16:31:39;20.7;59.6